Time,TemperatureF,DewpointF,PressureIn,WindDirection,WindDirectionDegrees,WindSpeedMPH,WindSpeedGustMPH,Humidity,HourlyPrecipIn,Conditions,Clouds,dailyrainin,SoftwareType,DateUTC
2013-09-07 00:14:00,53.1,49.0,30.09,NW,308,0.0,0.0,86,0.00,,,0.00,weatherlink.com 1.10,2013-09-07 04:14:00,
2013-09-07 00:29:00,53.0,49.0,30.08,NW,308,0.0,0.0,86,0.00,,,0.00,weatherlink.com 1.10,2013-09-07 04:29:00,
2013-09-07 00:44:00,52.8,49.0,30.08,NW,308,0.0,0.0,86,0.00,,,0.00,weatherlink.com 1.10,2013-09-07 04:44:00,
2013-09-07 00:59:00,52.7,49.0,30.08,NW,308,0.0,0.0,86,0.00,,,0.00,weatherlink.com 1.10,2013-09-07 04:59:00,
2013-09-07 01:14:00,52.3,49.0,30.08,NW,308,0.0,0.0,87,0.00,,,0.00,weatherlink.com 1.10,2013-09-07 05:14:00,
2013-09-07 01:29:00,52.1,48.0,30.08,NW,308,0.0,0.0,87,0.00,,,0.00,weatherlink.com 1.10,2013-09-07 05:29:00,
2013-09-07 01:44:00,52.0,49.0,30.08,NW,308,0.0,0.0,88,0.00,,,0.00,weatherlink.com 1.10,2013-09-07 05:44:00,
2013-09-07 01:59:00,52.0,49.0,30.09,NW,308,0.0,0.0,88,0.00,,,0.00,weatherlink.com 1.10,2013-09-07 05:59:00,
2013-09-07 02:14:00,52.1,49.0,30.08,NW,308,0.0,0.0,88,0.00,,,0.00,weatherlink.com 1.10,2013-09-07 06:14:00,
2013-09-07 02:29:00,52.3,49.0,30.08,NW,308,0.0,0.0,88,0.00,,,0.00,weatherlink.com 1.10,2013-09-07 06:29:00,
2013-09-07 02:44:00,52.2,49.0,30.08,NW,308,0.0,0.0,88,0.00,,,0.00,weatherlink.com 1.10,2013-09-07 06:44:00,
2013-09-07 02:59:00,51.9,49.0,30.08,NW,308,0.0,0.0,88,0.00,,,0.00,weatherlink.com 1.10,2013-09-07 06:59:00,
2013-09-07 03:14:00,51.6,49.0,30.08,NW,308,0.0,0.0,89,0.00,,,0.00,weatherlink.com 1.10,2013-09-07 07:14:00,
2013-09-07 03:29:00,51.4,49.0,30.07,NW,308,0.0,0.0,90,0.00,,,0.00,weatherlink.com 1.10,2013-09-07 07:29:00,
2013-09-07 03:44:00,51.2,48.0,30.07,NW,308,0.0,0.0,90,0.00,,,0.00,weatherlink.com 1.10,2013-09-07 07:44:00,
2013-09-07 03:59:00,51.2,49.0,30.07,NW,308,0.0,0.0,91,0.00,,,0.00,weatherlink.com 1.10,2013-09-07 07:59:00,
2013-09-07 04:14:00,51.5,49.0,30.08,NW,308,0.0,0.0,91,0.00,,,0.00,weatherlink.com 1.10,2013-09-07 08:14:00,
2013-09-07 04:29:00,51.8,49.0,30.07,NW,308,0.0,0.0,90,0.00,,,0.00,weatherlink.com 1.10,2013-09-07 08:29:00,
2013-09-07 04:44:00,51.7,49.0,30.07,NW,308,0.0,0.0,90,0.00,,,0.00,weatherlink.com 1.10,2013-09-07 08:44:00,
2013-09-07 04:59:00,51.4,49.0,30.07,NW,308,0.0,0.0,90,0.00,,,0.00,weatherlink.com 1.10,2013-09-07 08:59:00,
2013-09-07 05:14:00,50.9,48.0,30.06,NW,308,0.0,0.0,90,0.00,,,0.00,weatherlink.com 1.10,2013-09-07 09:14:00,
2013-09-07 05:29:00,50.6,48.0,30.06,NW,308,0.0,0.0,91,0.00,,,0.00,weatherlink.com 1.10,2013-09-07 09:29:00,
2013-09-07 05:44:00,50.5,48.0,30.06,NW,308,0.0,0.0,92,0.00,,,0.00,weatherlink.com 1.10,2013-09-07 09:44:00,
2013-09-07 05:59:00,50.5,49.0,30.06,NW,308,0.0,0.0,93,0.00,,,0.00,weatherlink.com 1.10,2013-09-07 09:59:00,
2013-09-07 06:14:00,50.3,48.0,30.06,NW,308,0.0,0.0,92,0.00,,,0.00,weatherlink.com 1.10,2013-09-07 10:14:00,
2013-09-07 06:29:00,50.2,48.0,30.06,NW,308,0.0,0.0,93,0.00,,,0.00,weatherlink.com 1.10,2013-09-07 10:29:00,
2013-09-07 06:44:00,50.1,48.0,30.05,NW,308,0.0,0.0,93,0.00,,,0.00,weatherlink.com 1.10,2013-09-07 10:44:00,
2013-09-07 06:59:00,49.9,48.0,30.06,NW,308,0.0,0.0,93,0.00,,,0.00,weatherlink.com 1.10,2013-09-07 10:59:00,
2013-09-07 07:14:00,50.0,48.0,30.05,NW,308,0.0,0.0,94,0.00,,,0.00,weatherlink.com 1.10,2013-09-07 11:14:00,
2013-09-07 07:29:00,50.4,49.0,30.05,NW,308,0.0,0.0,95,0.00,,,0.00,weatherlink.com 1.10,2013-09-07 11:29:00,
2013-09-07 07:44:00,51.8,51.0,30.06,WNW,284,0.0,2.0,95,0.00,,,0.00,weatherlink.com 1.10,2013-09-07 11:44:00,
2013-09-07 07:59:00,54.0,52.0,30.05,WNW,286,0.0,2.0,91,0.00,,,0.00,weatherlink.com 1.10,2013-09-07 11:59:00,
2013-09-07 08:15:00,55.6,52.0,30.05,WNW,286,0.0,1.0,87,0.00,,,0.00,weatherlink.com 1.10,2013-09-07 12:15:00,
2013-09-07 08:30:00,57.8,53.0,30.05,WNW,300,1.0,3.0,84,0.00,,,0.00,weatherlink.com 1.10,2013-09-07 12:30:00,
2013-09-07 08:45:00,60.0,53.0,30.05,West,275,0.0,4.0,77,0.00,,,0.00,weatherlink.com 1.10,2013-09-07 12:45:00,
2013-09-07 09:00:00,62.5,54.0,30.04,West,273,0.0,3.0,74,0.00,,,0.00,weatherlink.com 1.10,2013-09-07 13:00:00,
2013-09-07 09:15:00,64.8,53.0,30.05,SW,232,0.0,6.0,65,0.00,,,0.00,weatherlink.com 1.10,2013-09-07 13:15:00,
2013-09-07 09:30:00,66.2,52.0,30.05,NW,304,0.0,4.0,60,0.00,,,0.00,weatherlink.com 1.10,2013-09-07 13:30:00,
2013-09-07 09:45:00,67.7,52.0,30.04,NNW,327,0.0,2.0,57,0.00,,,0.00,weatherlink.com 1.10,2013-09-07 13:45:00,
2013-09-07 10:00:00,69.8,52.0,30.05,WNW,300,1.0,3.0,53,0.00,,,0.00,weatherlink.com 1.10,2013-09-07 14:00:00,
2013-09-07 10:15:00,70.2,49.0,30.05,WNW,301,1.0,6.0,47,0.00,,,0.00,weatherlink.com 1.10,2013-09-07 14:15:00,
2013-09-07 10:30:00,71.1,50.0,30.05,WNW,285,2.0,3.0,47,0.00,,,0.00,weatherlink.com 1.10,2013-09-07 14:30:00,
2013-09-07 10:45:00,71.9,49.0,30.04,WNW,287,2.0,7.0,45,0.00,,,0.00,weatherlink.com 1.10,2013-09-07 14:45:00,
2013-09-07 11:00:00,72.3,48.0,30.04,West,272,1.0,6.0,43,0.00,,,0.00,weatherlink.com 1.10,2013-09-07 15:00:00,
2013-09-07 11:15:00,73.0,50.0,30.04,WNW,291,2.0,4.0,44,0.00,,,0.00,weatherlink.com 1.10,2013-09-07 15:15:00,
2013-09-07 11:30:00,73.8,50.0,30.04,SW,215,1.0,8.0,44,0.00,,,0.00,weatherlink.com 1.10,2013-09-07 15:30:00,
2013-09-07 11:45:00,74.1,52.0,30.03,WSW,254,1.0,8.0,47,0.00,,,0.00,weatherlink.com 1.10,2013-09-07 15:45:00,
2013-09-07 12:00:00,75.1,53.0,30.02,NW,312,0.0,4.0,46,0.00,,,0.00,weatherlink.com 1.10,2013-09-07 16:00:00,
2013-09-07 12:15:00,74.9,52.0,30.01,NW,313,2.0,5.0,45,0.00,,,0.00,weatherlink.com 1.10,2013-09-07 16:15:00,
2013-09-07 12:30:00,74.6,52.0,30.00,NW,324,1.0,4.0,46,0.00,,,0.00,weatherlink.com 1.10,2013-09-07 16:30:00,
2013-09-07 12:46:00,74.9,50.0,29.99,SW,223,0.0,3.0,42,0.00,,,0.00,weatherlink.com 1.10,2013-09-07 16:46:00,
2013-09-07 13:01:00,75.1,52.0,29.98,WNW,285,0.0,3.0,44,0.00,,,0.00,weatherlink.com 1.10,2013-09-07 17:01:00,
2013-09-07 13:16:00,75.0,51.0,29.97,SSW,200,0.0,3.0,43,0.00,,,0.00,weatherlink.com 1.10,2013-09-07 17:16:00,
2013-09-07 13:31:00,75.0,50.0,29.96,South,171,3.0,3.0,41,0.00,,,0.00,weatherlink.com 1.10,2013-09-07 17:31:00,
2013-09-07 13:46:00,75.3,50.0,29.95,NNW,331,0.0,4.0,41,0.00,,,0.00,weatherlink.com 1.10,2013-09-07 17:46:00,
2013-09-07 14:01:00,75.5,51.0,29.95,WNW,284,0.0,5.0,42,0.00,,,0.00,weatherlink.com 1.10,2013-09-07 18:01:00,
2013-09-07 14:16:00,75.8,51.0,29.94,South,179,0.0,3.0,42,0.00,,,0.00,weatherlink.com 1.10,2013-09-07 18:16:00,
2013-09-07 14:31:00,76.2,49.0,29.92,WNW,292,0.0,4.0,39,0.00,,,0.00,weatherlink.com 1.10,2013-09-07 18:31:00,
2013-09-07 14:46:00,76.9,51.0,29.92,SSW,211,0.0,2.0,41,0.00,,,0.00,weatherlink.com 1.10,2013-09-07 18:46:00,
2013-09-07 15:01:00,77.2,51.0,29.92,West,277,0.0,6.0,40,0.00,,,0.00,weatherlink.com 1.10,2013-09-07 19:01:00,
2013-09-07 15:16:00,77.3,51.0,29.92,South,182,2.0,3.0,40,0.00,,,0.00,weatherlink.com 1.10,2013-09-07 19:16:00,
2013-09-07 15:31:00,77.4,52.0,29.91,WNW,284,0.0,5.0,41,0.00,,,0.00,weatherlink.com 1.10,2013-09-07 19:31:00,
2013-09-07 15:46:00,77.7,51.0,29.91,West,263,0.0,9.0,39,0.00,,,0.00,weatherlink.com 1.10,2013-09-07 19:46:00,
2013-09-07 16:01:00,77.9,52.0,29.91,SW,223,1.0,6.0,41,0.00,,,0.00,weatherlink.com 1.10,2013-09-07 20:01:00,
2013-09-07 16:16:00,78.1,52.0,29.90,WNW,286,0.0,5.0,40,0.00,,,0.00,weatherlink.com 1.10,2013-09-07 20:16:00,
2013-09-07 16:31:00,77.8,52.0,29.90,East,101,0.0,2.0,41,0.00,,,0.00,weatherlink.com 1.10,2013-09-07 20:31:00,
2013-09-07 16:46:00,78.3,53.0,29.90,NW,320,0.0,3.0,41,0.00,,,0.00,weatherlink.com 1.10,2013-09-07 20:46:00,
2013-09-07 17:01:00,78.2,54.0,29.90,WNW,291,1.0,4.0,43,0.00,,,0.00,weatherlink.com 1.10,2013-09-07 21:01:00,
2013-09-07 17:16:00,77.4,54.0,29.89,WNW,291,0.0,0.0,44,0.00,,,0.00,weatherlink.com 1.10,2013-09-07 21:16:00,
2013-09-07 17:31:00,77.0,53.0,29.89,WNW,291,0.0,1.0,44,0.00,,,0.00,weatherlink.com 1.10,2013-09-07 21:31:00,
2013-09-07 17:46:00,76.8,53.0,29.89,NW,305,0.0,2.0,44,0.00,,,0.00,weatherlink.com 1.10,2013-09-07 21:46:00,
2013-09-07 18:01:00,76.2,54.0,29.89,WNW,289,0.0,2.0,46,0.00,,,0.00,weatherlink.com 1.10,2013-09-07 22:01:00,
2013-09-07 18:16:00,75.6,55.0,29.89,West,267,1.0,1.0,49,0.00,,,0.00,weatherlink.com 1.10,2013-09-07 22:16:00,
2013-09-07 18:31:00,75.1,54.0,29.88,West,267,0.0,1.0,48,0.00,,,0.00,weatherlink.com 1.10,2013-09-07 22:31:00,
2013-09-07 18:46:00,74.7,54.0,29.89,West,274,0.0,0.0,49,0.00,,,0.00,weatherlink.com 1.10,2013-09-07 22:46:00,
2013-09-07 19:01:00,74.1,55.0,29.88,West,261,0.0,1.0,51,0.00,,,0.00,weatherlink.com 1.10,2013-09-07 23:01:00,
2013-09-07 19:16:00,73.3,54.0,29.88,West,261,0.0,0.0,51,0.00,,,0.00,weatherlink.com 1.10,2013-09-07 23:16:00,
2013-09-07 19:31:00,72.3,54.0,29.88,West,261,0.0,0.0,53,0.00,,,0.00,weatherlink.com 1.10,2013-09-07 23:31:00,
2013-09-07 19:46:00,71.5,54.0,29.88,West,261,0.0,0.0,54,0.00,,,0.00,weatherlink.com 1.10,2013-09-07 23:46:00,
2013-09-07 20:01:00,70.7,54.0,29.88,West,261,0.0,0.0,55,0.00,,,0.00,weatherlink.com 1.10,2013-09-08 00:01:00,
2013-09-07 20:16:00,70.0,55.0,29.87,West,261,0.0,0.0,59,0.00,,,0.00,weatherlink.com 1.10,2013-09-08 00:16:00,
2013-09-07 20:31:00,69.5,55.0,29.88,West,261,0.0,0.0,60,0.00,,,0.00,weatherlink.com 1.10,2013-09-08 00:31:00,
2013-09-07 20:46:00,69.1,54.0,29.87,West,261,0.0,0.0,60,0.00,,,0.00,weatherlink.com 1.10,2013-09-08 00:46:00,
2013-09-07 21:01:00,68.8,54.0,29.87,West,261,0.0,0.0,59,0.00,,,0.00,weatherlink.com 1.10,2013-09-08 01:01:00,
2013-09-07 21:16:00,68.6,55.0,29.87,West,261,0.0,0.0,62,0.00,,,0.00,weatherlink.com 1.10,2013-09-08 01:16:00,
2013-09-07 21:31:00,68.6,54.0,29.87,West,261,0.0,0.0,61,0.00,,,0.00,weatherlink.com 1.10,2013-09-08 01:31:00,
2013-09-07 21:46:00,68.5,54.0,29.87,West,261,0.0,0.0,61,0.00,,,0.00,weatherlink.com 1.10,2013-09-08 01:46:00,
2013-09-07 22:01:00,68.2,55.0,29.87,West,261,0.0,0.0,63,0.00,,,0.00,weatherlink.com 1.10,2013-09-08 02:01:00,
2013-09-07 22:16:00,68.0,56.0,29.87,West,261,0.0,0.0,66,0.00,,,0.00,weatherlink.com 1.10,2013-09-08 02:16:00,
2013-09-07 22:31:00,67.7,56.0,29.87,West,261,0.0,0.0,66,0.00,,,0.00,weatherlink.com 1.10,2013-09-08 02:31:00,
2013-09-07 22:46:00,67.4,56.0,29.87,West,261,0.0,0.0,66,0.00,,,0.00,weatherlink.com 1.10,2013-09-08 02:46:00,
2013-09-07 23:01:00,67.2,57.0,29.86,West,261,0.0,0.0,69,0.00,,,0.00,weatherlink.com 1.10,2013-09-08 03:01:00,
2013-09-07 23:16:00,67.1,56.0,29.86,West,261,0.0,0.0,68,0.00,,,0.00,weatherlink.com 1.10,2013-09-08 03:16:00,
2013-09-07 23:31:00,67.1,56.0,29.86,West,261,0.0,0.0,67,0.00,,,0.00,weatherlink.com 1.10,2013-09-08 03:31:00,
2013-09-07 23:46:00,67.3,55.0,29.86,West,261,0.0,0.0,66,0.00,,,0.00,weatherlink.com 1.10,2013-09-08 03:46:00,